Accueil
METAR-TAF:

METAR-TAF

Aéroports :

Morristown, New Jersey, États-Unis

latitude: 40-48N, longitude: 074-25W, altitude: 57 m

Observation

Le bulletin a été fait il y a 27 minutes, à 07:35 UTC
Vent 4 kt de nord/nord-est
Température 14°C
Humidité 94%
Pression 1027 hPa
Visibilité: 16.1 km
Ciel couvert à une hauteur de 3400 ft

METAR: KMMU 240735Z AUTO 03004KT 10SM OVC034 14/13 A3032 RMK AO2

Heure: 04:02 (08:02 UTC)


TAF: absent

Observations et prévisions météorologiques de plus de 4000 aéroports (messages METAR et TAF).

Les stations disponibles sont représentées par des disques jaunes et rouges sur la carte.

Passer la souris dessus pour voir le nom de la station.

Cliquer dessus pour voir les observations et prévisions météorologiques.

Pour changer de carte: cliquez sur les boutons verts avec une croix noire pour zoomer, sur le bouton vert avec un tiret pour effectuer un zoom arrière, ou sur les flèches vertes pour les cartes adjacentes.


METAR-TAF: